Terminal Aerodrome Forecast
Issued by NWS Topeka, KS

Home | Current Version | Previous Version | Text Only | Print | Product List | Glossary Off
Versions: 1 2 3 4 5 6 7 8 9 10 11 12 13 14 15 16 17 18

000
FTUS43 KTOP 092300
TAFTOP
TAF
KTOP 092320Z 1000/1024 10003KT P6SM FEW060 BKN150
     FM100600 13005KT P6SM -TSRA SCT030 BKN080CB
     FM101200 14012G20KT P6SM BKN080 PROB30 1012/1016 P6SM -TSRA
      BKN060CB=

USA.gov is the U.S. government's official web portal to all federal, state and local government web resources and services.